Time;durP1;ratioP1;P1;durP2;ratioP2;P2;SDS_P1;SDS_P2;PMS_P1;PMS_P2;Temp;Humidity;BMP_temperature;BMP_pressure;BME280_temperature;BME280_humidity;BME280_pressure;Samples;Min_cycle;Max_cycle;Signal;HPM_P1;HPM_P2
2022/08/09 00:07:47;;;;;;;;;;;;;;;25.08;47.42;100783.09;20442913;28;101279;-73
2022/08/09 00:17:48;;;;;;;;;;;;;;;25.13;47.23;100774.75;20457215;28;102914;-74
2022/08/09 00:27:48;;;;;;;;;;;;;;;25.17;47.29;100789.38;20454951;28;97857;-73
2022/08/09 00:37:48;;;;;;;;;;;;;;;25.20;47.26;100783.81;20449919;27;101368;-73
2022/08/09 00:47:49;;;;;;;;;;;;;;;25.23;47.14;100778.25;20456061;27;98716;-73
2022/08/09 00:57:49;;;;;;;;;;;;;;;25.26;46.88;100760.25;20465124;28;101607;-73
2022/08/09 01:08:03;;;;;;;;;;;;;;;25.30;46.89;100760.81;20442753;27;99177;-76
2022/08/09 01:18:08;;;;;;;;;;;;;;;25.34;46.78;100764.03;20435949;28;98450;-73
2022/08/09 01:28:10;;;;;;;;;;;;;;;25.35;46.97;100755.97;20455151;28;100970;-73
2022/08/09 01:38:12;;;;;;;;;;;;;;;25.38;46.76;100750.41;20460727;28;101623;-74
2022/08/09 01:48:14;;;;;;;;;;;;;;;25.40;46.75;100744.97;20452954;28;98552;-74
2022/08/09 01:58:15;;;;;;;;;;;;;;;25.42;46.60;100735.06;20455387;28;99044;-74
2022/08/09 02:08:17;;;;;;;;;;;;;;;25.44;46.67;100729.63;20459691;28;98420;-73
2022/08/09 02:18:25;;;;;;;;;;;;;;;25.47;46.55;100739.97;20455672;28;98969;-74
2022/08/09 02:28:30;;;;;;;;;;;;;;;25.47;46.45;100727.53;20464868;28;101063;-73
2022/08/09 02:38:33;;;;;;;;;;;;;;;25.50;46.40;100718.44;20456562;28;98549;-73
2022/08/09 02:48:35;;;;;;;;;;;;;;;25.52;46.27;100716.50;20456382;28;98310;-73
2022/08/09 02:58:36;;;;;;;;;;;;;;;25.52;46.27;100716.50;20451786;28;98486;-73
2022/08/09 03:08:38;;;;;;;;;;;;;;;25.53;46.25;100726.97;20448649;28;98638;-74
2022/08/09 03:18:39;;;;;;;;;;;;;;;25.54;46.25;100731.28;20447411;28;97856;-73
2022/08/09 03:28:40;;;;;;;;;;;;;;;25.55;46.26;100719.72;20457603;28;99814;-74
2022/08/09 03:38:41;;;;;;;;;;;;;;;25.56;46.26;100732.00;20467191;28;98771;-74
2022/08/09 03:48:43;;;;;;;;;;;;;;;25.56;46.43;100723.19;20460346;28;98960;-73
2022/08/09 03:58:43;;;;;;;;;;;;;;;25.57;46.17;100732.81;20463940;28;105008;-74
2022/08/09 04:08:44;;;;;;;;;;;;;;;25.59;46.33;100724.75;20445702;28;101540;-74
2022/08/09 04:18:44;;;;;;;;;;;;;;;25.59;46.21;100732.72;20467166;28;99258;-73
2022/08/09 04:28:44;;;;;;;;;;;;;;;25.60;46.07;100737.00;20469375;28;100625;-73
2022/08/09 04:38:45;;;;;;;;;;;;;;;25.61;45.95;100747.50;20469662;28;98602;-74
2022/08/09 04:48:45;;;;;;;;;;;;;;;25.62;45.88;100754.47;20468233;28;100862;-73
2022/08/09 04:58:45;;;;;;;;;;;;;;;25.63;46.07;100758.78;20457785;28;100819;-74
2022/08/09 05:08:46;;;;;;;;;;;;;;;25.65;46.09;100762.16;20453968;28;97440;-74
2022/08/09 05:18:46;;;;;;;;;;;;;;;25.65;46.14;100767.44;20464684;28;101065;-75
2022/08/09 05:28:46;;;;;;;;;;;;;;;25.21;45.63;100774.91;20467497;28;99617;-74
2022/08/09 05:38:46;;;;;;;;;;;;;;;24.92;46.27;100779.13;20467657;28;98498;-76
2022/08/09 05:48:47;;;;;;;;;;;;;;;24.74;46.73;100778.09;20477910;28;101066;-76
2022/08/09 05:58:47;;;;;;;;;;;;;;;24.55;47.11;100777.00;20414926;28;100426;-74
2022/08/09 06:08:48;;;;;;;;;;;;;;;24.61;47.54;100775.66;20441590;28;98838;-80
2022/08/09 06:18:49;;;;;;;;;;;;;;;24.38;47.51;100786.38;20437329;28;98815;-79
2022/08/09 06:28:50;;;;;;;;;;;;;;;24.51;47.20;100785.34;20447394;27;100270;-78
2022/08/09 06:38:50;;;;;;;;;;;;;;;24.47;47.22;100787.41;20466145;27;98130;-79
2022/08/09 06:48:51;;;;;;;;;;;;;;;24.24;48.02;100784.91;20444552;28;98739;-74
2022/08/09 06:58:52;;;;;;;;;;;;;;;24.34;48.02;100790.28;20455713;28;98108;-74
2022/08/09 07:08:52;;;;;;;;;;;;;;;24.52;47.60;100782.53;20465358;28;98827;-72
2022/08/09 07:18:53;;;;;;;;;;;;;;;24.46;48.35;100791.88;20453873;28;100520;-72
2022/08/09 07:28:53;;;;;;;;;;;;;;;24.54;47.93;100793.84;20457478;28;98620;-75
2022/08/09 07:38:56;;;;;;;;;;;;;;;24.73;47.74;100784.34;20452306;28;102134;-73
2022/08/09 07:48:57;;;;;;;;;;;;;;;24.73;47.09;100777.25;20473709;28;97003;-86
2022/08/09 07:58:59;;;;;;;;;;;;;;;24.76;46.26;100782.28;20453688;28;98667;-80
2022/08/09 08:08:59;;;;;;;;;;;;;;;24.89;46.44;100779.41;20458862;28;98125;-75
2022/08/09 08:18:59;;;;;;;;;;;;;;;24.88;45.97;100784.84;20469475;28;98484;-77
2022/08/09 08:28:59;;;;;;;;;;;;;;;24.99;45.05;100782.09;20461473;28;98523;-77
2022/08/09 08:39:00;;;;;;;;;;;;;;;25.17;45.32;100777.00;20463183;28;98507;-76
2022/08/09 08:49:00;;;;;;;;;;;;;;;25.31;45.03;100781.06;20466933;28;99193;-75
2022/08/09 08:59:05;;;;;;;;;;;;;;;25.47;45.08;100777.06;20475507;28;98544;-74
2022/08/09 09:09:06;;;;;;;;;;;;;;;25.53;44.21;100776.53;20492237;28;99520;-74
2022/08/09 09:19:08;;;;;;;;;;;;;;;25.61;44.54;100768.72;20479902;28;98672;-76
2022/08/09 09:29:10;;;;;;;;;;;;;;;25.72;44.30;100767.75;20473444;28;98723;-76
2022/08/09 09:39:10;;;;;;;;;;;;;;;25.81;44.76;100764.22;20459363;28;99063;-77
2022/08/09 09:49:12;;;;;;;;;;;;;;;25.88;44.63;100760.03;20465141;28;98664;-83
2022/08/09 09:59:13;;;;;;;;;;;;;;;26.01;44.93;100762.41;20444332;28;98709;-82
2022/08/09 10:09:15;;;;;;;;;;;;;;;26.13;44.36;100752.50;20471946;28;98157;-74
2022/08/09 10:19:15;;;;;;;;;;;;;;;26.23;44.41;100743.69;20488846;28;98765;-74
2022/08/09 10:29:15;;;;;;;;;;;;;;;26.38;42.27;100731.63;20491457;28;99060;-74
2022/08/09 10:39:19;;;;;;;;;;;;;;;26.49;42.01;100730.63;20480670;28;100961;-74
2022/08/09 10:49:25;;;;;;;;;;;;;;;26.57;42.32;100725.38;20492205;28;98639;-75
2022/08/09 10:59:27;;;;;;;;;;;;;;;26.61;42.66;100715.31;20492718;27;101043;-74
2022/08/09 11:09:53;;;;;;;;;;;;;;;26.66;42.16;100721.03;20481454;28;98057;-75
2022/08/09 11:20:06;;;;;;;;;;;;;;;26.67;41.99;100712.91;20486684;28;98294;-75
2022/08/09 11:30:11;;;;;;;;;;;;;;;26.69;40.19;100702.94;20486805;28;98294;-74
2022/08/09 11:40:15;;;;;;;;;;;;;;;26.84;40.97;100706.00;20492799;28;99080;-76
2022/08/09 11:50:16;;;;;;;;;;;;;;;26.90;40.90;100695.75;20492158;28;101071;-74
2022/08/09 12:00:16;;;;;;;;;;;;;;;26.95;40.70;100702.31;20469517;28;97401;-75
2022/08/09 12:10:17;;;;;;;;;;;;;;;27.00;41.24;100678.75;20464637;28;100656;-74
2022/08/09 12:20:19;;;;;;;;;;;;;;;27.04;40.76;100683.75;20467175;28;98938;-74
2022/08/09 12:30:19;;;;;;;;;;;;;;;27.09;40.55;100669.03;20471211;28;97691;-75
2022/08/09 12:40:21;;;;;;;;;;;;;;;27.13;41.21;100658.94;20457957;28;100178;-74
2022/08/09 12:50:22;;;;;;;;;;;;;;;27.16;40.02;100654.16;20485525;28;97872;-76
2022/08/09 13:00:31;;;;;;;;;;;;;;;27.19;40.32;100652.19;20488396;28;98070;-76
2022/08/09 13:10:42;;;;;;;;;;;;;;;27.19;40.40;100655.69;20484360;28;101116;-74
2022/08/09 13:20:42;;;;;;;;;;;;;;;27.20;39.76;100652.03;20481401;28;101563;-75
2022/08/09 13:30:43;;;;;;;;;;;;;;;27.16;40.09;100648.03;20483001;28;100960;-74
2022/08/09 13:40:43;;;;;;;;;;;;;;;27.13;40.00;100654.47;20452280;28;100452;-77
2022/08/09 13:50:44;;;;;;;;;;;;;;;27.19;41.51;100649.53;20459580;28;98370;-75
2022/08/09 14:00:44;;;;;;;;;;;;;;;27.25;40.65;100636.47;20458989;28;98428;-76
2022/08/09 14:10:46;;;;;;;;;;;;;;;27.25;40.71;100639.13;20472964;28;99207;-74
2022/08/09 14:20:46;;;;;;;;;;;;;;;27.37;40.33;100636.22;20469660;28;100081;-73
2022/08/09 14:30:46;;;;;;;;;;;;;;;27.39;40.06;100635.09;20474868;28;101450;-73
2022/08/09 14:40:47;;;;;;;;;;;;;;;27.42;39.20;100628.66;20447002;28;98112;-74
2022/08/09 14:50:47;;;;;;;;;;;;;;;27.49;39.36;100632.38;20472232;28;101295;-73
2022/08/09 15:00:47;;;;;;;;;;;;;;;27.48;38.13;100626.19;20481421;28;98305;-73
2022/08/09 15:10:48;;;;;;;;;;;;;;;27.45;39.04;100620.34;20442777;28;97487;-73
2022/08/09 15:20:48;;;;;;;;;;;;;;;27.43;39.36;100611.72;20457316;28;98544;-74
2022/08/09 15:30:48;;;;;;;;;;;;;;;27.41;38.96;100611.84;20486388;28;99173;-74
2022/08/09 15:40:49;;;;;;;;;;;;;;;27.41;38.86;100613.69;20483644;28;100466;-75
2022/08/09 15:50:50;;;;;;;;;;;;;;;27.41;38.40;100611.84;20463953;28;98787;-75
2022/08/09 16:00:50;;;;;;;;;;;;;;;27.42;38.31;100618.84;20472317;28;100673;-75
2022/08/09 16:10:52;;;;;;;;;;;;;;;28.27;37.10;100612.03;20487790;28;98561;-76
2022/08/09 16:20:52;;;;;;;;;;;;;;;28.03;37.99;100616.22;20469315;28;98448;-77
2022/08/09 16:30:52;;;;;;;;;;;;;;;27.80;37.55;100611.44;20503028;28;98700;-76
2022/08/09 16:40:52;;;;;;;;;;;;;;;27.78;38.84;100609.94;20474522;28;98253;-76
2022/08/09 16:50:53;;;;;;;;;;;;;;;27.62;38.92;100614.19;20469302;28;97817;-76
2022/08/09 17:00:53;;;;;;;;;;;;;;;27.55;39.20;100625.56;20489282;28;100089;-75
2022/08/09 17:10:53;;;;;;;;;;;;;;;27.50;38.67;100626.03;20468252;28;100850;-76
2022/08/09 17:20:54;;;;;;;;;;;;;;;27.45;39.03;100629.19;20490443;28;99991;-74
2022/08/09 17:30:54;;;;;;;;;;;;;;;27.39;38.77;100624.47;20471448;28;98667;-76
2022/08/09 17:40:54;;;;;;;;;;;;;;;27.37;39.30;100636.22;20452000;28;98397;-76
2022/08/09 17:50:55;;;;;;;;;;;;;;;27.32;39.72;100650.00;20464960;28;99557;-77
2022/08/09 18:00:55;;;;;;;;;;;;;;;27.29;39.26;100661.78;20474808;28;98418;-77
2022/08/09 18:10:56;;;;;;;;;;;;;;;27.26;39.47;100670.03;20485468;28;98732;-77
2022/08/09 18:20:58;;;;;;;;;;;;;;;27.17;39.06;100685.09;20459661;28;99046;-81
2022/08/09 18:30:59;;;;;;;;;;;;;;;27.11;39.38;100703.44;20474597;28;97760;-75
2022/08/09 18:41:00;;;;;;;;;;;;;;;27.08;37.92;100746.28;20458829;28;101409;-74
2022/08/09 18:51:00;;;;;;;;;;;;;;;26.97;36.14;100764.09;20450681;28;99578;-75
2022/08/09 19:01:00;;;;;;;;;;;;;;;26.84;34.53;100777.75;20461724;28;101540;-77
2022/08/09 19:11:01;;;;;;;;;;;;;;;26.83;34.55;100783.19;20461807;28;100886;-79
2022/08/09 19:21:02;;;;;;;;;;;;;;;26.81;35.31;100817.03;20456621;28;101352;-80
2022/08/09 19:31:03;;;;;;;;;;;;;;;26.73;33.73;100833.66;20490762;28;97981;-77
2022/08/09 19:41:04;;;;;;;;;;;;;;;26.75;35.53;100852.16;20479578;27;97319;-78
2022/08/09 19:51:04;;;;;;;;;;;;;;;26.72;35.40;100858.56;20497840;28;98227;-80
2022/08/09 20:01:04;;;;;;;;;;;;;;;26.70;35.41;100855.22;20479255;28;98963;-78
2022/08/09 20:11:05;;;;;;;;;;;;;;;26.59;33.64;100855.41;20502852;28;97713;-77
2022/08/09 20:21:05;;;;;;;;;;;;;;;26.54;33.41;100858.47;20491954;28;98467;-76
2022/08/09 20:31:05;;;;;;;;;;;;;;;26.51;34.72;100878.19;20498242;27;98583;-76
2022/08/09 20:41:06;;;;;;;;;;;;;;;26.48;34.15;100883.78;20500566;28;98089;-76
2022/08/09 20:51:07;;;;;;;;;;;;;;;26.39;33.80;100891.75;20499234;28;97220;-75
2022/08/09 21:01:07;;;;;;;;;;;;;;;26.34;33.37;100898.34;20532052;28;99214;-76
2022/08/09 21:11:08;;;;;;;;;;;;;;;26.24;31.67;100900.13;20497939;28;99007;-76
2022/08/09 21:21:08;;;;;;;;;;;;;;;26.21;33.46;100900.44;20485776;28;98609;-75
2022/08/09 21:31:10;;;;;;;;;;;;;;;26.19;33.15;100915.66;20496562;28;97451;-76
2022/08/09 21:41:10;;;;;;;;;;;;;;;26.20;33.62;100915.50;20497325;28;98106;-76
2022/08/09 21:51:10;;;;;;;;;;;;;;;26.19;33.18;100907.69;20495234;28;98014;-76
2022/08/09 22:01:11;;;;;;;;;;;;;;;26.19;33.79;100918.31;20490140;28;97895;-76
2022/08/09 22:11:11;;;;;;;;;;;;;;;26.18;33.44;100913.97;20480146;28;97835;-75
2022/08/09 22:21:11;;;;;;;;;;;;;;;26.16;33.24;100910.63;20466286;28;98765;-77
2022/08/09 22:31:13;;;;;;;;;;;;;;;26.15;33.51;100907.13;20458413;28;97742;-76
2022/08/09 22:41:13;;;;;;;;;;;;;;;26.15;33.44;100898.34;20463514;28;97886;-76
2022/08/09 22:51:13;;;;;;;;;;;;;;;26.12;32.68;100894.16;20455243;28;100837;-75
2022/08/09 23:01:14;;;;;;;;;;;;;;;25.86;32.38;100893.81;20453299;28;97742;-76
2022/08/09 23:11:16;;;;;;;;;;;;;;;25.75;32.96;100891.28;20456106;28;97735;-75
2022/08/09 23:21:17;;;;;;;;;;;;;;;25.61;33.20;100892.50;20458505;28;98141;-76
2022/08/09 23:31:17;;;;;;;;;;;;;;;25.56;33.49;100891.09;20458115;27;99493;-76
2022/08/09 23:41:17;;;;;;;;;;;;;;;25.52;33.58;100886.19;20465597;28;97805;-75
2022/08/09 23:51:18;;;;;;;;;;;;;;;25.52;33.71;100884.41;20452087;28;98297;-77
